sensor_id;sensor_type;location;lat;lon;timestamp;P1;durP1;ratioP1;P2;durP2;ratioP2
31347;SDS011;21711;49.708;18.568;2023-03-01T00:01:39;63.23;;;21.57;;
31347;SDS011;21711;49.708;18.568;2023-03-01T00:04:06;58.17;;;20.43;;
31347;SDS011;21711;49.708;18.568;2023-03-01T00:06:33;53.80;;;20.97;;
31347;SDS011;21711;49.708;18.568;2023-03-01T00:09:02;56.50;;;21.27;;
31347;SDS011;21711;49.708;18.568;2023-03-01T00:11:30;57.53;;;21.50;;
31347;SDS011;21711;49.708;18.568;2023-03-01T00:14:00;56.90;;;20.07;;
31347;SDS011;21711;49.708;18.568;2023-03-01T00:16:30;60.37;;;21.77;;
31347;SDS011;21711;49.708;18.568;2023-03-01T00:19:01;58.53;;;20.23;;
31347;SDS011;21711;49.708;18.568;2023-03-01T00:21:28;66.30;;;22.53;;
31347;SDS011;21711;49.708;18.568;2023-03-01T00:23:56;57.23;;;21.67;;
31347;SDS011;21711;49.708;18.568;2023-03-01T00:26:25;61.57;;;21.50;;
31347;SDS011;21711;49.708;18.568;2023-03-01T00:28:53;58.63;;;21.83;;
31347;SDS011;21711;49.708;18.568;2023-03-01T00:31:25;60.70;;;24.33;;
31347;SDS011;21711;49.708;18.568;2023-03-01T00:33:56;54.67;;;20.47;;
31347;SDS011;21711;49.708;18.568;2023-03-01T00:36:30;56.27;;;22.23;;
31347;SDS011;21711;49.708;18.568;2023-03-01T00:39:01;69.07;;;24.70;;
31347;SDS011;21711;49.708;18.568;2023-03-01T00:41:31;71.50;;;26.75;;
31347;SDS011;21711;49.708;18.568;2023-03-01T00:44:00;77.32;;;27.38;;
31347;SDS011;21711;49.708;18.568;2023-03-01T00:46:28;84.77;;;27.70;;
31347;SDS011;21711;49.708;18.568;2023-03-01T00:48:57;73.23;;;26.00;;
31347;SDS011;21711;49.708;18.568;2023-03-01T00:51:26;97.07;;;27.77;;
31347;SDS011;21711;49.708;18.568;2023-03-01T00:53:56;83.70;;;29.48;;
31347;SDS011;21711;49.708;18.568;2023-03-01T00:56:27;88.83;;;30.30;;
31347;SDS011;21711;49.708;18.568;2023-03-01T00:58:55;88.33;;;29.33;;
31347;SDS011;21711;49.708;18.568;2023-03-01T01:01:24;91.77;;;28.50;;
31347;SDS011;21711;49.708;18.568;2023-03-01T01:03:59;85.77;;;29.13;;
31347;SDS011;21711;49.708;18.568;2023-03-01T01:09:11;96.27;;;28.70;;
31347;SDS011;21711;49.708;18.568;2023-03-01T01:11:46;80.57;;;28.23;;
31347;SDS011;21711;49.708;18.568;2023-03-01T01:14:16;90.20;;;29.83;;
31347;SDS011;21711;49.708;18.568;2023-03-01T01:16:44;90.43;;;30.33;;
31347;SDS011;21711;49.708;18.568;2023-03-01T01:19:12;83.50;;;29.10;;
31347;SDS011;21711;49.708;18.568;2023-03-01T01:21:40;103.33;;;33.03;;
31347;SDS011;21711;49.708;18.568;2023-03-01T01:24:09;87.67;;;29.73;;
31347;SDS011;21711;49.708;18.568;2023-03-01T01:26:37;80.70;;;29.43;;
31347;SDS011;21711;49.708;18.568;2023-03-01T01:29:05;102.00;;;32.30;;
31347;SDS011;21711;49.708;18.568;2023-03-01T01:31:33;95.03;;;33.03;;
31347;SDS011;21711;49.708;18.568;2023-03-01T01:34:03;101.40;;;31.50;;
31347;SDS011;21711;49.708;18.568;2023-03-01T01:36:32;90.90;;;30.52;;
31347;SDS011;21711;49.708;18.568;2023-03-01T01:39:01;94.63;;;31.57;;
31347;SDS011;21711;49.708;18.568;2023-03-01T01:41:29;80.43;;;31.43;;
31347;SDS011;21711;49.708;18.568;2023-03-01T01:46:57;110.07;;;32.53;;
31347;SDS011;21711;49.708;18.568;2023-03-01T01:49:32;97.17;;;31.33;;
31347;SDS011;21711;49.708;18.568;2023-03-01T01:57:37;87.40;;;30.73;;
31347;SDS011;21711;49.708;18.568;2023-03-01T02:00:14;97.17;;;32.83;;
31347;SDS011;21711;49.708;18.568;2023-03-01T02:02:49;95.90;;;31.13;;
31347;SDS011;21711;49.708;18.568;2023-03-01T02:08:23;86.63;;;30.10;;
31347;SDS011;21711;49.708;18.568;2023-03-01T02:10:57;87.00;;;32.87;;
31347;SDS011;21711;49.708;18.568;2023-03-01T02:13:26;104.63;;;32.80;;
31347;SDS011;21711;49.708;18.568;2023-03-01T02:15:54;87.63;;;30.77;;
31347;SDS011;21711;49.708;18.568;2023-03-01T02:18:22;77.33;;;28.77;;
31347;SDS011;21711;49.708;18.568;2023-03-01T02:27:12;86.63;;;29.60;;
31347;SDS011;21711;49.708;18.568;2023-03-01T02:29:40;91.57;;;29.23;;
31347;SDS011;21711;49.708;18.568;2023-03-01T02:32:10;100.95;;;31.20;;
31347;SDS011;21711;49.708;18.568;2023-03-01T02:34:38;90.17;;;31.07;;
31347;SDS011;21711;49.708;18.568;2023-03-01T02:37:11;84.00;;;30.03;;
31347;SDS011;21711;49.708;18.568;2023-03-01T02:39:47;75.50;;;28.67;;
31347;SDS011;21711;49.708;18.568;2023-03-01T02:42:18;80.47;;;27.25;;
31347;SDS011;21711;49.708;18.568;2023-03-01T02:44:52;79.63;;;30.50;;
31347;SDS011;21711;49.708;18.568;2023-03-01T02:47:20;85.20;;;29.00;;
31347;SDS011;21711;49.708;18.568;2023-03-01T02:49:47;82.53;;;30.93;;
31347;SDS011;21711;49.708;18.568;2023-03-01T02:55:09;86.23;;;28.07;;
31347;SDS011;21711;49.708;18.568;2023-03-01T02:57:41;71.60;;;28.17;;
31347;SDS011;21711;49.708;18.568;2023-03-01T03:00:12;79.20;;;25.80;;
31347;SDS011;21711;49.708;18.568;2023-03-01T03:02:52;77.65;;;26.17;;
31347;SDS011;21711;49.708;18.568;2023-03-01T03:05:25;71.83;;;24.73;;
31347;SDS011;21711;49.708;18.568;2023-03-01T03:07:56;75.27;;;24.27;;
31347;SDS011;21711;49.708;18.568;2023-03-01T03:10:27;76.68;;;25.52;;
31347;SDS011;21711;49.708;18.568;2023-03-01T03:13:06;58.63;;;23.93;;
31347;SDS011;21711;49.708;18.568;2023-03-01T03:15:37;77.60;;;23.63;;
31347;SDS011;21711;49.708;18.568;2023-03-01T03:18:06;66.43;;;24.40;;
31347;SDS011;21711;49.708;18.568;2023-03-01T03:20:38;61.60;;;24.30;;
31347;SDS011;21711;49.708;18.568;2023-03-01T03:23:08;66.00;;;23.70;;
31347;SDS011;21711;49.708;18.568;2023-03-01T03:25:35;71.77;;;25.43;;
31347;SDS011;21711;49.708;18.568;2023-03-01T03:28:04;74.70;;;24.60;;
31347;SDS011;21711;49.708;18.568;2023-03-01T03:30:37;66.43;;;24.00;;
31347;SDS011;21711;49.708;18.568;2023-03-01T03:33:08;77.13;;;26.33;;
31347;SDS011;21711;49.708;18.568;2023-03-01T03:35:43;71.20;;;26.60;;
31347;SDS011;21711;49.708;18.568;2023-03-01T03:38:15;85.73;;;30.40;;
31347;SDS011;21711;49.708;18.568;2023-03-01T03:41:06;87.30;;;29.90;;
31347;SDS011;21711;49.708;18.568;2023-03-01T03:43:35;91.57;;;29.87;;
31347;SDS011;21711;49.708;18.568;2023-03-01T03:46:05;89.03;;;28.42;;
31347;SDS011;21711;49.708;18.568;2023-03-01T03:48:34;85.47;;;27.87;;
31347;SDS011;21711;49.708;18.568;2023-03-01T03:51:09;72.53;;;26.33;;
31347;SDS011;21711;49.708;18.568;2023-03-01T03:53:39;82.67;;;28.80;;
31347;SDS011;21711;49.708;18.568;2023-03-01T03:56:07;81.30;;;26.43;;
31347;SDS011;21711;49.708;18.568;2023-03-01T03:58:34;90.90;;;29.90;;
31347;SDS011;21711;49.708;18.568;2023-03-01T04:01:03;76.87;;;27.67;;
31347;SDS011;21711;49.708;18.568;2023-03-01T04:03:31;73.27;;;26.60;;
31347;SDS011;21711;49.708;18.568;2023-03-01T04:06:01;71.55;;;28.75;;
31347;SDS011;21711;49.708;18.568;2023-03-01T04:08:30;73.20;;;26.17;;
31347;SDS011;21711;49.708;18.568;2023-03-01T04:10:59;72.93;;;25.63;;
31347;SDS011;21711;49.708;18.568;2023-03-01T04:16:17;68.83;;;24.53;;
31347;SDS011;21711;49.708;18.568;2023-03-01T04:18:45;66.40;;;24.53;;
31347;SDS011;21711;49.708;18.568;2023-03-01T04:21:13;71.53;;;24.67;;
31347;SDS011;21711;49.708;18.568;2023-03-01T04:23:41;70.77;;;24.27;;
31347;SDS011;21711;49.708;18.568;2023-03-01T04:26:09;63.40;;;22.53;;
31347;SDS011;21711;49.708;18.568;2023-03-01T04:28:37;69.80;;;24.63;;
31347;SDS011;21711;49.708;18.568;2023-03-01T04:31:10;69.93;;;24.13;;
31347;SDS011;21711;49.708;18.568;2023-03-01T04:33:43;69.37;;;23.87;;
31347;SDS011;21711;49.708;18.568;2023-03-01T04:36:20;74.90;;;25.73;;
31347;SDS011;21711;49.708;18.568;2023-03-01T04:38:50;77.17;;;25.30;;
31347;SDS011;21711;49.708;18.568;2023-03-01T04:41:19;76.83;;;25.77;;
31347;SDS011;21711;49.708;18.568;2023-03-01T04:43:48;88.05;;;26.42;;
31347;SDS011;21711;49.708;18.568;2023-03-01T04:46:17;70.93;;;26.67;;
31347;SDS011;21711;49.708;18.568;2023-03-01T04:48:47;80.53;;;25.33;;
31347;SDS011;21711;49.708;18.568;2023-03-01T04:51:15;84.43;;;28.90;;
31347;SDS011;21711;49.708;18.568;2023-03-01T04:53:43;83.17;;;27.70;;
31347;SDS011;21711;49.708;18.568;2023-03-01T04:56:11;82.00;;;27.00;;
31347;SDS011;21711;49.708;18.568;2023-03-01T04:58:40;74.33;;;26.53;;
31347;SDS011;21711;49.708;18.568;2023-03-01T05:01:09;82.23;;;28.17;;
31347;SDS011;21711;49.708;18.568;2023-03-01T05:03:43;77.53;;;26.73;;
31347;SDS011;21711;49.708;18.568;2023-03-01T05:06:11;76.17;;;27.30;;
31347;SDS011;21711;49.708;18.568;2023-03-01T05:08:39;98.53;;;30.40;;
31347;SDS011;21711;49.708;18.568;2023-03-01T05:11:08;81.43;;;28.47;;
31347;SDS011;21711;49.708;18.568;2023-03-01T05:13:36;80.37;;;29.13;;
31347;SDS011;21711;49.708;18.568;2023-03-01T05:16:05;80.00;;;29.80;;
31347;SDS011;21711;49.708;18.568;2023-03-01T05:18:38;92.67;;;29.60;;
31347;SDS011;21711;49.708;18.568;2023-03-01T05:21:11;96.03;;;31.10;;
31347;SDS011;21711;49.708;18.568;2023-03-01T05:23:44;104.10;;;34.63;;
31347;SDS011;21711;49.708;18.568;2023-03-01T05:26:13;105.13;;;36.00;;
31347;SDS011;21711;49.708;18.568;2023-03-01T05:28:53;94.05;;;34.25;;
31347;SDS011;21711;49.708;18.568;2023-03-01T05:31:26;94.40;;;32.17;;
31347;SDS011;21711;49.708;18.568;2023-03-01T05:33:54;85.57;;;30.70;;
31347;SDS011;21711;49.708;18.568;2023-03-01T05:36:21;87.53;;;31.30;;
31347;SDS011;21711;49.708;18.568;2023-03-01T05:38:48;89.57;;;29.10;;
31347;SDS011;21711;49.708;18.568;2023-03-01T05:41:15;81.90;;;29.73;;
31347;SDS011;21711;49.708;18.568;2023-03-01T05:43:43;72.53;;;26.27;;
31347;SDS011;21711;49.708;18.568;2023-03-01T05:46:11;67.33;;;24.70;;
31347;SDS011;21711;49.708;18.568;2023-03-01T05:48:41;68.18;;;26.00;;
31347;SDS011;21711;49.708;18.568;2023-03-01T05:51:09;77.50;;;25.43;;
31347;SDS011;21711;49.708;18.568;2023-03-01T05:53:36;75.47;;;26.87;;
31347;SDS011;21711;49.708;18.568;2023-03-01T05:56:03;80.53;;;26.07;;
31347;SDS011;21711;49.708;18.568;2023-03-01T05:58:31;77.47;;;25.93;;
31347;SDS011;21711;49.708;18.568;2023-03-01T06:00:58;76.17;;;25.70;;
31347;SDS011;21711;49.708;18.568;2023-03-01T06:03:26;81.13;;;24.53;;
31347;SDS011;21711;49.708;18.568;2023-03-01T06:05:56;74.83;;;24.40;;
31347;SDS011;21711;49.708;18.568;2023-03-01T06:08:24;77.23;;;24.23;;
31347;SDS011;21711;49.708;18.568;2023-03-01T06:10:53;73.83;;;25.93;;
31347;SDS011;21711;49.708;18.568;2023-03-01T06:13:21;73.23;;;26.30;;
31347;SDS011;21711;49.708;18.568;2023-03-01T06:15:50;77.33;;;25.47;;
31347;SDS011;21711;49.708;18.568;2023-03-01T06:18:18;75.40;;;25.33;;
31347;SDS011;21711;49.708;18.568;2023-03-01T06:20:45;71.30;;;26.77;;
31347;SDS011;21711;49.708;18.568;2023-03-01T06:23:20;62.23;;;23.97;;
31347;SDS011;21711;49.708;18.568;2023-03-01T06:25:49;66.87;;;23.83;;
31347;SDS011;21711;49.708;18.568;2023-03-01T06:28:17;70.13;;;25.27;;
31347;SDS011;21711;49.708;18.568;2023-03-01T06:30:44;61.70;;;22.20;;
31347;SDS011;21711;49.708;18.568;2023-03-01T06:33:12;58.57;;;25.57;;
31347;SDS011;21711;49.708;18.568;2023-03-01T06:35:40;57.27;;;22.50;;
31347;SDS011;21711;49.708;18.568;2023-03-01T06:38:07;57.20;;;23.10;;
31347;SDS011;21711;49.708;18.568;2023-03-01T06:40:35;77.47;;;26.37;;
31347;SDS011;21711;49.708;18.568;2023-03-01T06:43:02;64.10;;;26.03;;
31347;SDS011;21711;49.708;18.568;2023-03-01T06:45:30;69.23;;;27.73;;
31347;SDS011;21711;49.708;18.568;2023-03-01T06:48:05;68.78;;;27.70;;
31347;SDS011;21711;49.708;18.568;2023-03-01T06:50:35;65.88;;;27.23;;
31347;SDS011;21711;49.708;18.568;2023-03-01T06:53:04;72.15;;;28.63;;
31347;SDS011;21711;49.708;18.568;2023-03-01T06:55:32;74.32;;;29.60;;
31347;SDS011;21711;49.708;18.568;2023-03-01T06:57:59;68.00;;;28.00;;
31347;SDS011;21711;49.708;18.568;2023-03-01T07:00:28;70.43;;;29.27;;
31347;SDS011;21711;49.708;18.568;2023-03-01T07:03:00;68.93;;;28.02;;
31347;SDS011;21711;49.708;18.568;2023-03-01T07:05:29;66.13;;;28.58;;
31347;SDS011;21711;49.708;18.568;2023-03-01T07:07:57;67.22;;;28.55;;
31347;SDS011;21711;49.708;18.568;2023-03-01T07:10:24;59.92;;;26.40;;
31347;SDS011;21711;49.708;18.568;2023-03-01T07:12:55;66.68;;;28.02;;
31347;SDS011;21711;49.708;18.568;2023-03-01T07:15:26;61.20;;;27.88;;
31347;SDS011;21711;49.708;18.568;2023-03-01T07:17:54;66.65;;;27.92;;
31347;SDS011;21711;49.708;18.568;2023-03-01T07:20:22;64.03;;;27.08;;
31347;SDS011;21711;49.708;18.568;2023-03-01T07:22:52;63.95;;;26.20;;
31347;SDS011;21711;49.708;18.568;2023-03-01T07:25:21;63.67;;;25.23;;
31347;SDS011;21711;49.708;18.568;2023-03-01T07:27:49;60.33;;;26.67;;
31347;SDS011;21711;49.708;18.568;2023-03-01T07:30:19;72.68;;;28.58;;
31347;SDS011;21711;49.708;18.568;2023-03-01T07:32:47;63.40;;;25.80;;
31347;SDS011;21711;49.708;18.568;2023-03-01T07:35:15;59.90;;;25.38;;
31347;SDS011;21711;49.708;18.568;2023-03-01T07:37:42;64.50;;;28.05;;
31347;SDS011;21711;49.708;18.568;2023-03-01T07:40:10;68.75;;;29.60;;
31347;SDS011;21711;49.708;18.568;2023-03-01T07:42:38;65.07;;;29.40;;
31347;SDS011;21711;49.708;18.568;2023-03-01T07:45:06;61.75;;;27.67;;
31347;SDS011;21711;49.708;18.568;2023-03-01T07:47:34;69.70;;;31.10;;
31347;SDS011;21711;49.708;18.568;2023-03-01T07:50:01;80.63;;;36.83;;
31347;SDS011;21711;49.708;18.568;2023-03-01T07:52:30;77.57;;;37.15;;
31347;SDS011;21711;49.708;18.568;2023-03-01T07:54:57;73.60;;;35.08;;
31347;SDS011;21711;49.708;18.568;2023-03-01T07:57:24;57.08;;;26.98;;
31347;SDS011;21711;49.708;18.568;2023-03-01T07:59:52;56.40;;;26.40;;
31347;SDS011;21711;49.708;18.568;2023-03-01T08:02:19;55.78;;;26.92;;
31347;SDS011;21711;49.708;18.568;2023-03-01T08:04:46;56.92;;;26.63;;
31347;SDS011;21711;49.708;18.568;2023-03-01T08:07:13;50.55;;;26.27;;
31347;SDS011;21711;49.708;18.568;2023-03-01T08:09:41;52.63;;;25.85;;
31347;SDS011;21711;49.708;18.568;2023-03-01T08:12:08;58.08;;;28.50;;
31347;SDS011;21711;49.708;18.568;2023-03-01T08:14:35;51.85;;;27.48;;
31347;SDS011;21711;49.708;18.568;2023-03-01T08:17:02;57.75;;;29.65;;
31347;SDS011;21711;49.708;18.568;2023-03-01T08:19:30;52.25;;;27.00;;
31347;SDS011;21711;49.708;18.568;2023-03-01T08:21:57;60.35;;;29.75;;
31347;SDS011;21711;49.708;18.568;2023-03-01T08:24:26;59.50;;;28.90;;
31347;SDS011;21711;49.708;18.568;2023-03-01T08:26:53;52.50;;;26.80;;
31347;SDS011;21711;49.708;18.568;2023-03-01T08:29:21;53.80;;;29.05;;
31347;SDS011;21711;49.708;18.568;2023-03-01T08:31:48;53.28;;;27.08;;
31347;SDS011;21711;49.708;18.568;2023-03-01T08:34:17;53.10;;;27.27;;
31347;SDS011;21711;49.708;18.568;2023-03-01T08:36:45;54.55;;;27.67;;
31347;SDS011;21711;49.708;18.568;2023-03-01T08:39:14;53.42;;;28.25;;
31347;SDS011;21711;49.708;18.568;2023-03-01T08:44:13;53.92;;;26.80;;
31347;SDS011;21711;49.708;18.568;2023-03-01T08:46:43;50.75;;;27.77;;
31347;SDS011;21711;49.708;18.568;2023-03-01T08:49:14;51.65;;;27.90;;
31347;SDS011;21711;49.708;18.568;2023-03-01T08:51:44;49.10;;;28.30;;
31347;SDS011;21711;49.708;18.568;2023-03-01T08:54:16;44.35;;;25.95;;
31347;SDS011;21711;49.708;18.568;2023-03-01T08:56:46;41.28;;;23.80;;
31347;SDS011;21711;49.708;18.568;2023-03-01T08:59:15;42.40;;;25.52;;
31347;SDS011;21711;49.708;18.568;2023-03-01T09:01:44;48.05;;;28.58;;
31347;SDS011;21711;49.708;18.568;2023-03-01T09:04:11;45.90;;;28.10;;
31347;SDS011;21711;49.708;18.568;2023-03-01T09:06:40;39.80;;;23.23;;
31347;SDS011;21711;49.708;18.568;2023-03-01T09:09:12;42.65;;;25.05;;
31347;SDS011;21711;49.708;18.568;2023-03-01T09:11:43;47.97;;;27.63;;
31347;SDS011;21711;49.708;18.568;2023-03-01T09:14:13;45.08;;;28.40;;
31347;SDS011;21711;49.708;18.568;2023-03-01T09:16:41;51.10;;;28.40;;
31347;SDS011;21711;49.708;18.568;2023-03-01T09:19:09;46.67;;;27.40;;
31347;SDS011;21711;49.708;18.568;2023-03-01T09:21:36;49.70;;;28.33;;
31347;SDS011;21711;49.708;18.568;2023-03-01T09:24:08;39.05;;;23.50;;
31347;SDS011;21711;49.708;18.568;2023-03-01T09:26:40;44.13;;;27.63;;
31347;SDS011;21711;49.708;18.568;2023-03-01T09:29:09;52.85;;;29.65;;
31347;SDS011;21711;49.708;18.568;2023-03-01T09:31:36;54.45;;;30.65;;
31347;SDS011;21711;49.708;18.568;2023-03-01T09:34:05;56.83;;;32.97;;
31347;SDS011;21711;49.708;18.568;2023-03-01T09:36:32;55.47;;;34.30;;
31347;SDS011;21711;49.708;18.568;2023-03-01T09:39:00;54.10;;;34.33;;
31347;SDS011;21711;49.708;18.568;2023-03-01T09:46:58;67.03;;;41.40;;
31347;SDS011;21711;49.708;18.568;2023-03-01T09:49:30;66.30;;;42.03;;
31347;SDS011;21711;49.708;18.568;2023-03-01T09:54:54;75.90;;;42.70;;
31347;SDS011;21711;49.708;18.568;2023-03-01T09:57:28;73.32;;;42.65;;
31347;SDS011;21711;49.708;18.568;2023-03-01T10:00:10;66.10;;;42.25;;
31347;SDS011;21711;49.708;18.568;2023-03-01T10:03:16;60.92;;;36.55;;
31347;SDS011;21711;49.708;18.568;2023-03-01T10:11:50;54.13;;;31.60;;
31347;SDS011;21711;49.708;18.568;2023-03-01T10:14:34;52.58;;;31.30;;
31347;SDS011;21711;49.708;18.568;2023-03-01T10:20:28;53.75;;;31.08;;
31347;SDS011;21711;49.708;18.568;2023-03-01T10:23:11;59.42;;;32.92;;
31347;SDS011;21711;49.708;18.568;2023-03-01T10:31:18;56.63;;;31.77;;
31347;SDS011;21711;49.708;18.568;2023-03-01T10:33:55;50.97;;;29.25;;
31347;SDS011;21711;49.708;18.568;2023-03-01T10:36:24;51.40;;;29.83;;
31347;SDS011;21711;49.708;18.568;2023-03-01T10:38:55;48.53;;;29.73;;
31347;SDS011;21711;49.708;18.568;2023-03-01T10:41:24;54.42;;;33.17;;
31347;SDS011;21711;49.708;18.568;2023-03-01T10:43:55;57.67;;;34.67;;
31347;SDS011;21711;49.708;18.568;2023-03-01T10:51:41;49.63;;;32.03;;
31347;SDS011;21711;49.708;18.568;2023-03-01T10:54:21;52.40;;;33.55;;
31347;SDS011;21711;49.708;18.568;2023-03-01T10:57:03;53.40;;;36.67;;
31347;SDS011;21711;49.708;18.568;2023-03-01T10:59:32;60.63;;;37.92;;
31347;SDS011;21711;49.708;18.568;2023-03-01T11:02:18;54.83;;;37.33;;
31347;SDS011;21711;49.708;18.568;2023-03-01T11:07:31;58.58;;;38.97;;
31347;SDS011;21711;49.708;18.568;2023-03-01T11:10:18;56.40;;;36.08;;
31347;SDS011;21711;49.708;18.568;2023-03-01T11:12:50;63.58;;;38.10;;
31347;SDS011;21711;49.708;18.568;2023-03-01T11:15:26;50.13;;;33.83;;
31347;SDS011;21711;49.708;18.568;2023-03-01T11:17:55;44.83;;;30.90;;
31347;SDS011;21711;49.708;18.568;2023-03-01T11:20:38;46.25;;;29.85;;
31347;SDS011;21711;49.708;18.568;2023-03-01T11:23:08;40.00;;;25.60;;
31347;SDS011;21711;49.708;18.568;2023-03-01T11:25:40;40.67;;;27.05;;
31347;SDS011;21711;49.708;18.568;2023-03-01T11:28:13;39.08;;;26.40;;
31347;SDS011;21711;49.708;18.568;2023-03-01T11:30:51;38.97;;;25.30;;
31347;SDS011;21711;49.708;18.568;2023-03-01T11:33:37;45.55;;;28.23;;
31347;SDS011;21711;49.708;18.568;2023-03-01T11:36:35;40.58;;;25.40;;
31347;SDS011;21711;49.708;18.568;2023-03-01T11:39:28;40.53;;;27.02;;
31347;SDS011;21711;49.708;18.568;2023-03-01T11:44:44;37.88;;;24.50;;
31347;SDS011;21711;49.708;18.568;2023-03-01T11:50:44;33.67;;;22.92;;
31347;SDS011;21711;49.708;18.568;2023-03-01T11:56:10;35.17;;;22.35;;
31347;SDS011;21711;49.708;18.568;2023-03-01T11:58:58;35.00;;;23.17;;
31347;SDS011;21711;49.708;18.568;2023-03-01T12:02:01;34.15;;;23.88;;
31347;SDS011;21711;49.708;18.568;2023-03-01T12:07:47;32.22;;;21.20;;
31347;SDS011;21711;49.708;18.568;2023-03-01T12:10:21;37.28;;;23.05;;
31347;SDS011;21711;49.708;18.568;2023-03-01T12:19:14;34.45;;;21.00;;
31347;SDS011;21711;49.708;18.568;2023-03-01T12:45:54;31.65;;;21.92;;
31347;SDS011;21711;49.708;18.568;2023-03-01T12:48:37;32.83;;;23.13;;
31347;SDS011;21711;49.708;18.568;2023-03-01T12:51:20;34.67;;;22.48;;
31347;SDS011;21711;49.708;18.568;2023-03-01T12:53:53;35.67;;;22.90;;
31347;SDS011;21711;49.708;18.568;2023-03-01T12:56:24;36.17;;;23.35;;
31347;SDS011;21711;49.708;18.568;2023-03-01T13:01:54;30.80;;;19.48;;
31347;SDS011;21711;49.708;18.568;2023-03-01T13:10:40;35.53;;;22.02;;
31347;SDS011;21711;49.708;18.568;2023-03-01T13:13:24;33.25;;;19.65;;
31347;SDS011;21711;49.708;18.568;2023-03-01T13:15:54;30.67;;;19.63;;
31347;SDS011;21711;49.708;18.568;2023-03-01T13:20:52;30.52;;;19.52;;
31347;SDS011;21711;49.708;18.568;2023-03-01T13:23:26;33.22;;;19.77;;
31347;SDS011;21711;49.708;18.568;2023-03-01T13:26:13;28.70;;;19.25;;
31347;SDS011;21711;49.708;18.568;2023-03-01T13:33:45;43.00;;;19.27;;
31347;SDS011;21711;49.708;18.568;2023-03-01T13:44:20;27.00;;;16.65;;
31347;SDS011;21711;49.708;18.568;2023-03-01T13:49:48;29.70;;;15.60;;
31347;SDS011;21711;49.708;18.568;2023-03-01T13:55:45;25.30;;;15.05;;
31347;SDS011;21711;49.708;18.568;2023-03-01T13:58:28;25.52;;;13.88;;
31347;SDS011;21711;49.708;18.568;2023-03-01T14:01:03;24.73;;;12.27;;
31347;SDS011;21711;49.708;18.568;2023-03-01T14:03:33;24.25;;;13.40;;
31347;SDS011;21711;49.708;18.568;2023-03-01T14:06:15;26.25;;;12.80;;
31347;SDS011;21711;49.708;18.568;2023-03-01T14:09:09;26.15;;;13.75;;
31347;SDS011;21711;49.708;18.568;2023-03-01T14:14:55;22.75;;;10.85;;
31347;SDS011;21711;49.708;18.568;2023-03-01T14:17:54;22.02;;;11.43;;
31347;SDS011;21711;49.708;18.568;2023-03-01T14:20:31;25.35;;;11.27;;
31347;SDS011;21711;49.708;18.568;2023-03-01T14:23:10;27.15;;;12.60;;
31347;SDS011;21711;49.708;18.568;2023-03-01T14:25:49;23.33;;;11.95;;
31347;SDS011;21711;49.708;18.568;2023-03-01T14:28:28;23.38;;;10.48;;
31347;SDS011;21711;49.708;18.568;2023-03-01T14:31:01;22.42;;;11.80;;
31347;SDS011;21711;49.708;18.568;2023-03-01T14:41:06;22.33;;;10.20;;
31347;SDS011;21711;49.708;18.568;2023-03-01T14:43:46;24.30;;;11.57;;
31347;SDS011;21711;49.708;18.568;2023-03-01T14:51:39;19.83;;;9.88;;
31347;SDS011;21711;49.708;18.568;2023-03-01T14:56:54;23.88;;;10.65;;
31347;SDS011;21711;49.708;18.568;2023-03-01T14:59:26;25.90;;;10.18;;
31347;SDS011;21711;49.708;18.568;2023-03-01T15:01:55;29.02;;;12.13;;
31347;SDS011;21711;49.708;18.568;2023-03-01T15:04:24;23.55;;;10.30;;
31347;SDS011;21711;49.708;18.568;2023-03-01T15:06:54;23.95;;;10.85;;
31347;SDS011;21711;49.708;18.568;2023-03-01T15:09:32;27.27;;;11.65;;
31347;SDS011;21711;49.708;18.568;2023-03-01T15:15:18;23.70;;;10.60;;
31347;SDS011;21711;49.708;18.568;2023-03-01T15:18:15;20.65;;;10.52;;
31347;SDS011;21711;49.708;18.568;2023-03-01T15:20:53;28.40;;;12.68;;
31347;SDS011;21711;49.708;18.568;2023-03-01T15:23:24;22.50;;;10.65;;
31347;SDS011;21711;49.708;18.568;2023-03-01T15:25:56;23.13;;;11.80;;
31347;SDS011;21711;49.708;18.568;2023-03-01T15:28:27;28.52;;;11.30;;
31347;SDS011;21711;49.708;18.568;2023-03-01T15:31:06;28.95;;;11.50;;
31347;SDS011;21711;49.708;18.568;2023-03-01T15:33:49;28.38;;;9.57;;
31347;SDS011;21711;49.708;18.568;2023-03-01T15:38:58;25.20;;;12.00;;
31347;SDS011;21711;49.708;18.568;2023-03-01T15:41:30;24.85;;;9.88;;
31347;SDS011;21711;49.708;18.568;2023-03-01T15:44:17;20.20;;;9.57;;
31347;SDS011;21711;49.708;18.568;2023-03-01T15:47:25;22.48;;;10.13;;
31347;SDS011;21711;49.708;18.568;2023-03-01T15:49:54;32.80;;;10.20;;
31347;SDS011;21711;49.708;18.568;2023-03-01T15:52:25;31.80;;;11.07;;
31347;SDS011;21711;49.708;18.568;2023-03-01T15:55:04;24.70;;;9.80;;
31347;SDS011;21711;49.708;18.568;2023-03-01T15:57:41;25.02;;;11.30;;
31347;SDS011;21711;49.708;18.568;2023-03-01T16:00:10;25.42;;;10.98;;
31347;SDS011;21711;49.708;18.568;2023-03-01T16:02:40;25.27;;;10.80;;
31347;SDS011;21711;49.708;18.568;2023-03-01T16:05:17;28.60;;;10.82;;
31347;SDS011;21711;49.708;18.568;2023-03-01T16:07:53;31.33;;;12.07;;
31347;SDS011;21711;49.708;18.568;2023-03-01T16:10:21;30.08;;;12.10;;
31347;SDS011;21711;49.708;18.568;2023-03-01T16:12:49;36.78;;;12.90;;
31347;SDS011;21711;49.708;18.568;2023-03-01T16:15:23;25.35;;;11.00;;
31347;SDS011;21711;49.708;18.568;2023-03-01T16:17:57;24.95;;;11.88;;
31347;SDS011;21711;49.708;18.568;2023-03-01T16:20:25;30.35;;;12.32;;
31347;SDS011;21711;49.708;18.568;2023-03-01T16:22:58;54.30;;;20.17;;
31347;SDS011;21711;49.708;18.568;2023-03-01T16:27:56;96.55;;;33.90;;
31347;SDS011;21711;49.708;18.568;2023-03-01T16:30:26;79.25;;;31.05;;
31347;SDS011;21711;49.708;18.568;2023-03-01T16:32:54;84.35;;;34.28;;
31347;SDS011;21711;49.708;18.568;2023-03-01T16:35:21;93.05;;;36.42;;
31347;SDS011;21711;49.708;18.568;2023-03-01T16:37:49;75.30;;;29.85;;
31347;SDS011;21711;49.708;18.568;2023-03-01T16:40:23;65.80;;;26.85;;
31347;SDS011;21711;49.708;18.568;2023-03-01T16:42:54;49.40;;;18.17;;
31347;SDS011;21711;49.708;18.568;2023-03-01T16:45:28;47.28;;;19.98;;
31347;SDS011;21711;49.708;18.568;2023-03-01T16:48:02;44.42;;;18.65;;
31347;SDS011;21711;49.708;18.568;2023-03-01T16:50:30;35.30;;;16.38;;
31347;SDS011;21711;49.708;18.568;2023-03-01T16:52:57;36.92;;;15.65;;
31347;SDS011;21711;49.708;18.568;2023-03-01T16:55:25;48.75;;;19.50;;
31347;SDS011;21711;49.708;18.568;2023-03-01T16:57:52;44.45;;;19.13;;
31347;SDS011;21711;49.708;18.568;2023-03-01T17:00:19;36.53;;;17.50;;
31347;SDS011;21711;49.708;18.568;2023-03-01T17:02:48;44.88;;;19.13;;
31347;SDS011;21711;49.708;18.568;2023-03-01T17:05:16;48.10;;;20.15;;
31347;SDS011;21711;49.708;18.568;2023-03-01T17:07:43;43.83;;;18.67;;
31347;SDS011;21711;49.708;18.568;2023-03-01T17:10:11;35.33;;;17.50;;
31347;SDS011;21711;49.708;18.568;2023-03-01T17:12:38;38.85;;;17.55;;
31347;SDS011;21711;49.708;18.568;2023-03-01T17:15:06;43.03;;;17.55;;